Orbital elements of SL-3 R/B
| Launched | 10 July 1975 |
| Flight ended | – |
| Launch site | Plesetsk Missile and Space Complex, Russia |
| Owner | Commonwealth of Independent States (former USSR) |
| NORAD ID | 8027 |
| Date fetched |
Epoch osculation |
Inc. [°] |
Ecc. | RA asc node [hr] |
Arg Peri. [°] |
Mean anom [°] |
Mean motion [rev/day] |
Abs. mag |
| Date fetched |
Epoch osculation |
Inc. [°] |
Ecc. | RA asc node [hr] |
Arg Peri. [°] |
Mean anom [°] |
Mean motion [rev/day] |
Abs. mag |
| 2026 May 04 17:57 | 2026 Apr 30 13:37:30 | 81.2970 | 0.00585 | 11.6502 | 144.2891 | 216.2216 | 14.07770 | 5.243 |
| 2026 May 03 17:57 | 2026 Apr 30 13:37:30 | 81.2970 | 0.00585 | 11.6502 | 144.2891 | 216.2216 | 14.07770 | 5.243 |
| 2026 May 02 17:57 | 2026 Apr 30 13:37:30 | 81.2970 | 0.00585 | 11.6502 | 144.2891 | 216.2216 | 14.07770 | 5.243 |
| 2026 May 01 17:56 | 2026 Apr 30 13:37:30 | 81.2970 | 0.00585 | 11.6502 | 144.2891 | 216.2216 | 14.07770 | 5.243 |
| 2026 Apr 30 17:56 | 2026 Apr 30 13:37:30 | 81.2970 | 0.00585 | 11.6502 | 144.2891 | 216.2216 | 14.07770 | 5.243 |
| 2026 Apr 29 17:57 | 2026 Apr 24 12:38:00 | 81.2982 | 0.00582 | 12.0383 | 161.2973 | 216.2216 | 14.07770 | 5.243 |
| 2026 Apr 28 17:56 | 2026 Apr 24 12:38:00 | 81.2982 | 0.00582 | 12.0383 | 161.2973 | 216.2216 | 14.07770 | 5.243 |
| 2026 Apr 27 17:58 | 2026 Apr 24 12:38:00 | 81.2982 | 0.00582 | 12.0383 | 161.2973 | 216.2216 | 14.07770 | 5.243 |
| 2026 Apr 26 17:58 | 2026 Apr 24 12:38:00 | 81.2982 | 0.00582 | 12.0383 | 161.2973 | 216.2216 | 14.07770 | 5.243 |
| 2026 Apr 25 17:58 | 2026 Apr 24 12:38:00 | 81.2982 | 0.00582 | 12.0383 | 161.2973 | 216.2216 | 14.07770 | 5.243 |
| 2026 Apr 24 17:59 | 2026 Apr 24 12:38:00 | 81.2982 | 0.00582 | 12.0383 | 161.2973 | 216.2216 | 14.07770 | 5.243 |
| 2026 Apr 23 17:57 | 2026 Apr 19 11:31:21 | 81.2989 | 0.00578 | 12.3625 | 175.6512 | 216.2216 | 14.07770 | 5.243 |
| 2026 Apr 22 17:57 | 2026 Apr 19 11:31:21 | 81.2989 | 0.00578 | 12.3625 | 175.6512 | 216.2216 | 14.07770 | 5.243 |
| 2026 Apr 21 17:57 | 2026 Apr 19 11:31:21 | 81.2989 | 0.00578 | 12.3625 | 175.6512 | 216.2216 | 14.07770 | 5.243 |
| 2026 Apr 20 17:57 | 2026 Apr 19 11:31:21 | 81.2989 | 0.00578 | 12.3625 | 175.6512 | 216.2216 | 14.07770 | 5.243 |
| 2026 Apr 19 17:58 | 2026 Apr 19 11:31:21 | 81.2989 | 0.00578 | 12.3625 | 175.6512 | 216.2216 | 14.07770 | 5.243 |
| 2026 Apr 18 17:56 | 2026 Apr 13 05:24:48 | 81.2991 | 0.00574 | 12.7643 | 193.6376 | 216.2216 | 14.07770 | 5.243 |
| 2026 Apr 16 17:57 | 2026 Apr 13 05:24:48 | 81.2991 | 0.00574 | 12.7643 | 193.6376 | 216.2216 | 14.07770 | 5.243 |
| 2026 Apr 14 17:57 | 2026 Apr 13 05:24:48 | 81.2991 | 0.00574 | 12.7643 | 193.6376 | 216.2216 | 14.07770 | 5.243 |
| 2026 Apr 13 17:57 | 2026 Apr 13 05:24:48 | 81.2991 | 0.00574 | 12.7643 | 193.6376 | 216.2216 | 14.07770 | 5.243 |
| 2026 Apr 12 17:57 | 2026 Apr 08 14:32:14 | 81.2995 | 0.00572 | 13.0611 | 207.0052 | 216.2216 | 14.07770 | 5.243 |
| 2026 Apr 11 17:57 | 2026 Apr 08 14:32:14 | 81.2995 | 0.00572 | 13.0611 | 207.0052 | 216.2216 | 14.07770 | 5.243 |
| 2026 Apr 10 17:58 | 2026 Apr 08 14:32:14 | 81.2995 | 0.00572 | 13.0611 | 207.0052 | 216.2216 | 14.07770 | 5.243 |
| 2026 Apr 09 18:01 | 2026 Apr 08 14:32:14 | 81.2995 | 0.00572 | 13.0611 | 207.0052 | 216.2216 | 14.07770 | 5.243 |
| 2026 Apr 08 17:57 | 2026 Apr 08 14:32:14 | 81.2995 | 0.00572 | 13.0611 | 207.0052 | 216.2216 | 14.07770 | 5.243 |
| 2026 Apr 07 17:57 | 2026 Apr 02 06:43:21 | 81.2989 | 0.00571 | 13.4675 | 225.4086 | 216.2216 | 14.07770 | 5.243 |